Southern Ontario METAR Reports

CYSN - St.Catharines
Updated: 05/22/2017 9:00pm
NOT Current
Mostly cloudy
Mostly cloudy
 Wind from SW
Wind: SW 22 km/h
Temperature: 14°C
Dew Point: 7°C
Humidity: 63%
Barometer: 1014.6 hPa
Clouds: Mostly cloudy
Visibility: 24 km
Cloud details: Few Clouds 1524 m
Mostly cloudy 7010 m
2017/05/23 01:00 CYSN 230100Z 22012KT 15SM FEW050 BKN230 14/07 A2996 RMK SC1CI4 LAST STFD OBS/NEXT 231100 UTC SLP146
CYHM - Hamilton
Updated: 05/23/2017 2:00am
Partly cloudy
Partly cloudy
 Wind from SSW
Wind: SSW 7 km/h
Temperature: 8°C
Wind Chill: 7°C
Dew Point: 7°C
Humidity: 93%
Barometer: 1014.2 hPa
Clouds: Partly cloudy
Visibility: 24 km
Cloud details: Partly cloudy 7315 m
2017/05/23 06:00 CYHM 230600Z 20004KT 15SM SCT240 08/07 A2995 RMK CI4 SLP145
 
CYYZ - Toronto
Updated: 05/23/2017 2:00am
Clear
Clear
 Wind from SW
Wind: SW 7 km/h
Temperature: 11°C
Dew Point: 8°C
Humidity: 82%
Barometer: 1013.2 hPa
Clouds: Clear
Visibility: 24 km
2017/05/23 06:00 CYYZ 230600Z 23004KT 15SM SKC 11/08 A2992 RMK SLP135
CYKF - Waterloo
Updated: 05/23/2017 2:37am
Mist, Clear
Mist, Clear
 Wind from varies
Wind: varies 4 km/h
Temperature: 8°C
Dew Point: 7°C
Humidity: 93%
Barometer: 1013.5 hPa
Summary: Mist
Clouds: Clear
Visibility: 10 km
2017/05/23 06:37 CYKF 230637Z AUTO VRB02KT 6SM BR CLR 08/07 A2993 RMK SLP141
 
CYXU - London
Updated: 05/23/2017 2:00am
Few Clouds
Few Clouds
 Wind from SSE
Wind: SSE 6 km/h
Temperature: 10°C
Dew Point: 8°C
Humidity: 88%
Barometer: 1013.9 hPa
Clouds: Few Clouds
Visibility: 24 km
Cloud details: Few Clouds 7620 m
2017/05/23 06:00 CYXU 230600Z 15003KT 15SM FEW250 10/08 A2994 RMK CI2 SLP142
CYQG - Windsor
Updated: 05/23/2017 2:00am
Mostly cloudy
Mostly cloudy
 Wind from SSW
Wind: SSW 15 km/h
Temperature: 15°C
Dew Point: 11°C
Humidity: 77%
Barometer: 1013.5 hPa
Clouds: Mostly cloudy
Visibility: 24 km
Cloud details: Mostly cloudy 3658 m
2017/05/23 06:00 CYQG 230600Z 20008KT 15SM BKN120 15/11 A2993 RMK AC7 SLP137
 
CYZR - Sarnia
Updated: 05/23/2017 2:00am
Mostly cloudy
Mostly cloudy
 Wind from SSW
Wind: SSW 15 km/h
Temperature: 13°C
Dew Point: 9°C
Humidity: 77%
Barometer: 1012.9 hPa
Clouds: Mostly cloudy
Visibility: 14 km
Cloud details: Partly cloudy 3962 m
Mostly cloudy 5486 m
2017/05/23 06:00 CYZR 230600Z AUTO 21008KT 9SM SCT130 BKN180 13/09 A2991 RMK SLP130
CYVV - Wiarton
Updated: 05/23/2017 2:00am
Mostly cloudy
Mostly cloudy
 Wind from SSE
Wind: SSE 13 km/h
Temperature: 7°C
Wind Chill: 5°C
Dew Point: 7°C
Humidity: 100%
Barometer: 1011.9 hPa
Clouds: Mostly cloudy
Visibility: 24 km
Cloud details: Mostly cloudy 3048 m
2017/05/23 06:00 CYVV 230600Z 15007KT 15SM BKN100 07/07 A2988 RMK AC6 SLP125
 
CYPQ - Peterborough
Updated: 05/23/2017 2:39am
Clear
Clear
 Wind from SW
Wind: SW 4 km/h
Temperature: 4°C
Dew Point: 4°C
Humidity: 100%
Barometer: 1013.2 hPa
Clouds: Clear
Visibility: 11 km
2017/05/23 06:39 CYPQ 230639Z AUTO 23002KT 7SM CLR 04/04 A2992 RMK SLP136
CYTR - Trenton
Updated: 05/23/2017 2:00am
Few Clouds
Few Clouds
 Wind from calm
Wind: Calm
Temperature: 8°C
Dew Point: 8°C
Humidity: 100%
Barometer: 1013.9 hPa
Clouds: Few Clouds
Visibility: 24 km
Cloud details: Few Clouds 6096 m
2017/05/23 06:00 CYTR 230600Z 00000KT 15SM FEW200 08/08 A2994 RMK CI2 SLP140